sensor_id;sensor_type;location;lat;lon;timestamp;temperature;humidity
4215;DHT22;2121;48.062;7.850;2024-02-23T00:00:39;6.40;99.90
4215;DHT22;2121;48.062;7.850;2024-02-23T00:03:05;6.30;99.90
4215;DHT22;2121;48.062;7.850;2024-02-23T00:05:31;6.40;99.90
4215;DHT22;2121;48.062;7.850;2024-02-23T00:07:57;6.30;99.90
4215;DHT22;2121;48.062;7.850;2024-02-23T00:10:22;6.20;99.90
4215;DHT22;2121;48.062;7.850;2024-02-23T00:12:48;6.20;99.90
4215;DHT22;2121;48.062;7.850;2024-02-23T00:15:14;6.20;99.90
4215;DHT22;2121;48.062;7.850;2024-02-23T00:17:40;6.20;99.90
4215;DHT22;2121;48.062;7.850;2024-02-23T00:20:08;6.10;99.90
4215;DHT22;2121;48.062;7.850;2024-02-23T00:22:36;6.10;99.90
4215;DHT22;2121;48.062;7.850;2024-02-23T00:25:01;6.10;99.90
4215;DHT22;2121;48.062;7.850;2024-02-23T00:27:27;6.10;99.90
4215;DHT22;2121;48.062;7.850;2024-02-23T00:29:53;6.10;99.90
4215;DHT22;2121;48.062;7.850;2024-02-23T00:32:19;6.10;99.90
4215;DHT22;2121;48.062;7.850;2024-02-23T00:34:44;6.00;99.90
4215;DHT22;2121;48.062;7.850;2024-02-23T00:37:10;6.00;99.90
4215;DHT22;2121;48.062;7.850;2024-02-23T00:39:36;6.00;99.90
4215;DHT22;2121;48.062;7.850;2024-02-23T00:42:03;6.00;99.90
4215;DHT22;2121;48.062;7.850;2024-02-23T00:44:29;6.10;99.90
4215;DHT22;2121;48.062;7.850;2024-02-23T00:46:54;6.10;99.90
4215;DHT22;2121;48.062;7.850;2024-02-23T00:49:20;6.00;99.90
4215;DHT22;2121;48.062;7.850;2024-02-23T00:51:46;6.00;99.90
4215;DHT22;2121;48.062;7.850;2024-02-23T00:54:11;6.10;99.90
4215;DHT22;2121;48.062;7.850;2024-02-23T00:56:37;6.10;99.90
4215;DHT22;2121;48.062;7.850;2024-02-23T00:59:03;6.10;99.90
4215;DHT22;2121;48.062;7.850;2024-02-23T01:01:28;6.20;99.90
4215;DHT22;2121;48.062;7.850;2024-02-23T01:03:54;6.10;99.90
4215;DHT22;2121;48.062;7.850;2024-02-23T01:06:20;6.10;99.90
4215;DHT22;2121;48.062;7.850;2024-02-23T01:08:45;6.00;99.90
4215;DHT22;2121;48.062;7.850;2024-02-23T01:11:11;6.00;99.90
4215;DHT22;2121;48.062;7.850;2024-02-23T01:13:37;6.00;99.90
4215;DHT22;2121;48.062;7.850;2024-02-23T01:16:03;6.00;99.90
4215;DHT22;2121;48.062;7.850;2024-02-23T01:18:28;5.90;99.90
4215;DHT22;2121;48.062;7.850;2024-02-23T01:20:56;5.90;99.90
4215;DHT22;2121;48.062;7.850;2024-02-23T01:23:22;6.00;99.90
4215;DHT22;2121;48.062;7.850;2024-02-23T01:25:48;6.00;99.90
4215;DHT22;2121;48.062;7.850;2024-02-23T01:28:14;6.00;99.90
4215;DHT22;2121;48.062;7.850;2024-02-23T01:30:39;5.90;99.90
4215;DHT22;2121;48.062;7.850;2024-02-23T01:33:05;5.90;99.90
4215;DHT22;2121;48.062;7.850;2024-02-23T01:35:31;6.00;99.90
4215;DHT22;2121;48.062;7.850;2024-02-23T01:37:56;5.80;99.90
4215;DHT22;2121;48.062;7.850;2024-02-23T01:40:22;5.80;99.90
4215;DHT22;2121;48.062;7.850;2024-02-23T01:42:48;5.80;99.90
4215;DHT22;2121;48.062;7.850;2024-02-23T01:45:13;5.80;99.90
4215;DHT22;2121;48.062;7.850;2024-02-23T01:47:39;5.80;99.90
4215;DHT22;2121;48.062;7.850;2024-02-23T01:50:05;5.70;99.90
4215;DHT22;2121;48.062;7.850;2024-02-23T01:52:33;5.70;99.90
4215;DHT22;2121;48.062;7.850;2024-02-23T01:55:00;5.70;99.90
4215;DHT22;2121;48.062;7.850;2024-02-23T01:57:26;5.70;99.90
4215;DHT22;2121;48.062;7.850;2024-02-23T01:59:52;5.60;99.90
4215;DHT22;2121;48.062;7.850;2024-02-23T02:02:18;5.60;99.90
4215;DHT22;2121;48.062;7.850;2024-02-23T02:04:44;5.60;99.90
4215;DHT22;2121;48.062;7.850;2024-02-23T02:07:10;5.60;99.90
4215;DHT22;2121;48.062;7.850;2024-02-23T02:09:36;5.70;99.90
4215;DHT22;2121;48.062;7.850;2024-02-23T02:12:01;5.60;99.90
4215;DHT22;2121;48.062;7.850;2024-02-23T02:14:27;5.60;99.90
4215;DHT22;2121;48.062;7.850;2024-02-23T02:16:55;5.60;99.90
4215;DHT22;2121;48.062;7.850;2024-02-23T02:19:21;5.60;99.90
4215;DHT22;2121;48.062;7.850;2024-02-23T02:21:46;5.60;99.90
4215;DHT22;2121;48.062;7.850;2024-02-23T02:24:12;5.50;99.90
4215;DHT22;2121;48.062;7.850;2024-02-23T02:26:38;5.60;99.90
4215;DHT22;2121;48.062;7.850;2024-02-23T02:29:04;5.60;99.90
4215;DHT22;2121;48.062;7.850;2024-02-23T02:31:29;5.50;99.90
4215;DHT22;2121;48.062;7.850;2024-02-23T02:33:55;5.50;99.90
4215;DHT22;2121;48.062;7.850;2024-02-23T02:36:21;5.50;99.90
4215;DHT22;2121;48.062;7.850;2024-02-23T02:38:47;5.50;99.90
4215;DHT22;2121;48.062;7.850;2024-02-23T02:41:12;5.50;99.90
4215;DHT22;2121;48.062;7.850;2024-02-23T02:43:38;5.50;99.90
4215;DHT22;2121;48.062;7.850;2024-02-23T02:46:04;5.40;99.90
4215;DHT22;2121;48.062;7.850;2024-02-23T02:48:29;5.50;99.90
4215;DHT22;2121;48.062;7.850;2024-02-23T02:50:55;5.50;99.90
4215;DHT22;2121;48.062;7.850;2024-02-23T02:53:21;5.50;99.90
4215;DHT22;2121;48.062;7.850;2024-02-23T02:55:47;5.60;99.90
4215;DHT22;2121;48.062;7.850;2024-02-23T02:58:13;5.60;99.90
4215;DHT22;2121;48.062;7.850;2024-02-23T03:00:39;5.70;99.90
4215;DHT22;2121;48.062;7.850;2024-02-23T03:03:05;5.70;99.90
4215;DHT22;2121;48.062;7.850;2024-02-23T03:05:31;5.70;99.90
4215;DHT22;2121;48.062;7.850;2024-02-23T03:07:57;5.60;99.90
4215;DHT22;2121;48.062;7.850;2024-02-23T03:10:22;5.60;99.90
4215;DHT22;2121;48.062;7.850;2024-02-23T03:12:48;5.60;99.90
4215;DHT22;2121;48.062;7.850;2024-02-23T03:15:14;5.60;99.90
4215;DHT22;2121;48.062;7.850;2024-02-23T03:17:40;5.60;99.90
4215;DHT22;2121;48.062;7.850;2024-02-23T03:20:06;5.50;99.90
4215;DHT22;2121;48.062;7.850;2024-02-23T03:22:35;5.50;99.90
4215;DHT22;2121;48.062;7.850;2024-02-23T03:25:02;5.40;99.90
4215;DHT22;2121;48.062;7.850;2024-02-23T03:27:35;5.40;99.90
4215;DHT22;2121;48.062;7.850;2024-02-23T03:30:03;5.40;99.90
4215;DHT22;2121;48.062;7.850;2024-02-23T03:32:30;5.50;99.90
4215;DHT22;2121;48.062;7.850;2024-02-23T03:35:02;5.50;99.90
4215;DHT22;2121;48.062;7.850;2024-02-23T03:37:29;5.50;99.90
4215;DHT22;2121;48.062;7.850;2024-02-23T03:39:55;5.50;99.90
4215;DHT22;2121;48.062;7.850;2024-02-23T03:42:20;5.60;99.90
4215;DHT22;2121;48.062;7.850;2024-02-23T03:44:46;5.50;99.90
4215;DHT22;2121;48.062;7.850;2024-02-23T03:47:12;5.50;99.90
4215;DHT22;2121;48.062;7.850;2024-02-23T03:49:38;5.50;99.90
4215;DHT22;2121;48.062;7.850;2024-02-23T03:52:04;5.50;99.90
4215;DHT22;2121;48.062;7.850;2024-02-23T03:54:30;5.50;99.90
4215;DHT22;2121;48.062;7.850;2024-02-23T03:56:57;5.50;99.90
4215;DHT22;2121;48.062;7.850;2024-02-23T03:59:23;5.50;99.90
4215;DHT22;2121;48.062;7.850;2024-02-23T04:01:49;5.50;99.90
4215;DHT22;2121;48.062;7.850;2024-02-23T04:04:15;5.60;99.90
4215;DHT22;2121;48.062;7.850;2024-02-23T04:06:40;5.40;99.90
4215;DHT22;2121;48.062;7.850;2024-02-23T04:09:06;5.40;99.90
4215;DHT22;2121;48.062;7.850;2024-02-23T04:11:34;5.60;99.90
4215;DHT22;2121;48.062;7.850;2024-02-23T04:13:59;5.40;99.90
4215;DHT22;2121;48.062;7.850;2024-02-23T04:16:26;5.30;99.90
4215;DHT22;2121;48.062;7.850;2024-02-23T04:18:52;5.30;99.90
4215;DHT22;2121;48.062;7.850;2024-02-23T04:21:19;5.30;99.90
4215;DHT22;2121;48.062;7.850;2024-02-23T04:23:45;5.30;99.90
4215;DHT22;2121;48.062;7.850;2024-02-23T04:26:11;5.30;99.90
4215;DHT22;2121;48.062;7.850;2024-02-23T04:28:43;5.20;99.90
4215;DHT22;2121;48.062;7.850;2024-02-23T04:31:09;5.20;99.90
4215;DHT22;2121;48.062;7.850;2024-02-23T04:33:35;5.30;99.90
4215;DHT22;2121;48.062;7.850;2024-02-23T04:36:02;5.20;99.90
4215;DHT22;2121;48.062;7.850;2024-02-23T04:38:32;5.20;99.90
4215;DHT22;2121;48.062;7.850;2024-02-23T04:41:03;5.10;99.90
4215;DHT22;2121;48.062;7.850;2024-02-23T04:43:29;5.00;99.90
4215;DHT22;2121;48.062;7.850;2024-02-23T04:45:55;4.90;99.90
4215;DHT22;2121;48.062;7.850;2024-02-23T04:48:21;4.90;99.90
4215;DHT22;2121;48.062;7.850;2024-02-23T04:50:46;5.00;99.90
4215;DHT22;2121;48.062;7.850;2024-02-23T04:53:12;5.00;99.90
4215;DHT22;2121;48.062;7.850;2024-02-23T04:55:38;5.00;99.90
4215;DHT22;2121;48.062;7.850;2024-02-23T04:58:04;5.00;99.90
4215;DHT22;2121;48.062;7.850;2024-02-23T05:00:29;5.00;99.90
4215;DHT22;2121;48.062;7.850;2024-02-23T05:02:59;4.90;99.90
4215;DHT22;2121;48.062;7.850;2024-02-23T05:05:28;5.00;99.90
4215;DHT22;2121;48.062;7.850;2024-02-23T05:07:57;5.00;99.90
4215;DHT22;2121;48.062;7.850;2024-02-23T05:10:23;5.10;99.90
4215;DHT22;2121;48.062;7.850;2024-02-23T05:12:49;5.00;99.90
4215;DHT22;2121;48.062;7.850;2024-02-23T05:15:15;4.90;99.90
4215;DHT22;2121;48.062;7.850;2024-02-23T05:17:41;4.90;99.90
4215;DHT22;2121;48.062;7.850;2024-02-23T05:20:07;4.80;99.90
4215;DHT22;2121;48.062;7.850;2024-02-23T05:22:36;4.80;99.90
4215;DHT22;2121;48.062;7.850;2024-02-23T05:25:02;4.80;99.90
4215;DHT22;2121;48.062;7.850;2024-02-23T05:27:30;4.80;99.90
4215;DHT22;2121;48.062;7.850;2024-02-23T05:29:56;4.70;99.90
4215;DHT22;2121;48.062;7.850;2024-02-23T05:32:21;4.70;99.90
4215;DHT22;2121;48.062;7.850;2024-02-23T05:34:47;4.60;99.90
4215;DHT22;2121;48.062;7.850;2024-02-23T05:37:17;4.70;99.90
4215;DHT22;2121;48.062;7.850;2024-02-23T05:39:43;4.70;99.90
4215;DHT22;2121;48.062;7.850;2024-02-23T05:42:09;4.70;99.90
4215;DHT22;2121;48.062;7.850;2024-02-23T05:44:36;4.70;99.90
4215;DHT22;2121;48.062;7.850;2024-02-23T05:47:01;4.70;99.90
4215;DHT22;2121;48.062;7.850;2024-02-23T05:49:27;4.80;99.90
4215;DHT22;2121;48.062;7.850;2024-02-23T05:51:53;4.80;99.90
4215;DHT22;2121;48.062;7.850;2024-02-23T05:54:19;4.80;99.90
4215;DHT22;2121;48.062;7.850;2024-02-23T05:56:44;4.80;99.90
4215;DHT22;2121;48.062;7.850;2024-02-23T05:59:11;4.80;99.90
4215;DHT22;2121;48.062;7.850;2024-02-23T06:01:37;4.80;99.90
4215;DHT22;2121;48.062;7.850;2024-02-23T06:04:02;4.70;99.90
4215;DHT22;2121;48.062;7.850;2024-02-23T06:06:28;4.70;99.90
4215;DHT22;2121;48.062;7.850;2024-02-23T06:08:54;4.70;99.90
4215;DHT22;2121;48.062;7.850;2024-02-23T06:11:20;4.80;99.90
4215;DHT22;2121;48.062;7.850;2024-02-23T06:13:46;4.70;99.90
4215;DHT22;2121;48.062;7.850;2024-02-23T06:16:12;4.60;99.90
4215;DHT22;2121;48.062;7.850;2024-02-23T06:18:41;4.70;99.90
4215;DHT22;2121;48.062;7.850;2024-02-23T06:21:16;4.80;99.90
4215;DHT22;2121;48.062;7.850;2024-02-23T06:23:45;4.80;99.90
4215;DHT22;2121;48.062;7.850;2024-02-23T06:26:11;4.70;99.90
4215;DHT22;2121;48.062;7.850;2024-02-23T06:28:37;4.60;99.90
4215;DHT22;2121;48.062;7.850;2024-02-23T06:31:06;4.50;99.90
4215;DHT22;2121;48.062;7.850;2024-02-23T06:33:32;4.50;99.90
4215;DHT22;2121;48.062;7.850;2024-02-23T06:35:59;4.50;99.90
4215;DHT22;2121;48.062;7.850;2024-02-23T06:38:25;4.50;99.90
4215;DHT22;2121;48.062;7.850;2024-02-23T06:40:51;4.50;99.90
4215;DHT22;2121;48.062;7.850;2024-02-23T06:43:17;4.50;99.90
4215;DHT22;2121;48.062;7.850;2024-02-23T06:45:43;4.60;99.90
4215;DHT22;2121;48.062;7.850;2024-02-23T06:48:09;4.50;99.90
4215;DHT22;2121;48.062;7.850;2024-02-23T06:50:35;4.50;99.90
4215;DHT22;2121;48.062;7.850;2024-02-23T06:53:01;4.50;99.90
4215;DHT22;2121;48.062;7.850;2024-02-23T06:55:28;4.60;99.90
4215;DHT22;2121;48.062;7.850;2024-02-23T06:57:54;4.60;99.90
4215;DHT22;2121;48.062;7.850;2024-02-23T07:00:23;4.70;99.90
4215;DHT22;2121;48.062;7.850;2024-02-23T07:02:49;4.70;99.90
4215;DHT22;2121;48.062;7.850;2024-02-23T07:05:15;4.50;99.90
4215;DHT22;2121;48.062;7.850;2024-02-23T07:07:40;4.50;99.90
4215;DHT22;2121;48.062;7.850;2024-02-23T07:10:07;4.60;99.90
4215;DHT22;2121;48.062;7.850;2024-02-23T07:12:34;4.70;99.90
4215;DHT22;2121;48.062;7.850;2024-02-23T07:15:00;4.80;99.90
4215;DHT22;2121;48.062;7.850;2024-02-23T07:17:26;4.90;99.90
4215;DHT22;2121;48.062;7.850;2024-02-23T07:19:51;5.20;99.90
4215;DHT22;2121;48.062;7.850;2024-02-23T07:22:18;5.40;99.90
4215;DHT22;2121;48.062;7.850;2024-02-23T07:24:44;5.50;99.90
4215;DHT22;2121;48.062;7.850;2024-02-23T07:27:10;5.70;99.90
4215;DHT22;2121;48.062;7.850;2024-02-23T07:29:35;5.90;99.90
4215;DHT22;2121;48.062;7.850;2024-02-23T07:32:01;6.00;99.90
4215;DHT22;2121;48.062;7.850;2024-02-23T07:34:27;6.10;99.90
4215;DHT22;2121;48.062;7.850;2024-02-23T07:36:53;6.20;99.90
4215;DHT22;2121;48.062;7.850;2024-02-23T07:39:20;6.40;99.90
4215;DHT22;2121;48.062;7.850;2024-02-23T07:41:47;6.40;99.90
4215;DHT22;2121;48.062;7.850;2024-02-23T07:44:13;6.30;99.90
4215;DHT22;2121;48.062;7.850;2024-02-23T07:46:38;6.40;99.90
4215;DHT22;2121;48.062;7.850;2024-02-23T07:49:05;6.30;99.90
4215;DHT22;2121;48.062;7.850;2024-02-23T07:51:35;6.30;99.90
4215;DHT22;2121;48.062;7.850;2024-02-23T07:54:01;6.30;99.90
4215;DHT22;2121;48.062;7.850;2024-02-23T07:56:27;6.20;99.90
4215;DHT22;2121;48.062;7.850;2024-02-23T07:58:54;6.10;99.90
4215;DHT22;2121;48.062;7.850;2024-02-23T08:01:19;6.20;99.90
4215;DHT22;2121;48.062;7.850;2024-02-23T08:03:45;6.10;99.90
4215;DHT22;2121;48.062;7.850;2024-02-23T08:06:11;6.10;99.90
4215;DHT22;2121;48.062;7.850;2024-02-23T08:08:38;6.10;99.90
4215;DHT22;2121;48.062;7.850;2024-02-23T08:11:04;6.10;99.90
4215;DHT22;2121;48.062;7.850;2024-02-23T08:13:30;6.20;99.90
4215;DHT22;2121;48.062;7.850;2024-02-23T08:15:57;6.30;99.90
4215;DHT22;2121;48.062;7.850;2024-02-23T08:18:23;6.50;99.90
4215;DHT22;2121;48.062;7.850;2024-02-23T08:20:49;6.60;99.90
4215;DHT22;2121;48.062;7.850;2024-02-23T08:23:17;6.70;99.90
4215;DHT22;2121;48.062;7.850;2024-02-23T08:25:44;6.60;99.90
4215;DHT22;2121;48.062;7.850;2024-02-23T08:28:10;6.60;99.90
4215;DHT22;2121;48.062;7.850;2024-02-23T08:30:35;6.60;99.90
4215;DHT22;2121;48.062;7.850;2024-02-23T08:33:01;6.60;99.90
4215;DHT22;2121;48.062;7.850;2024-02-23T08:35:27;6.70;99.90
4215;DHT22;2121;48.062;7.850;2024-02-23T08:37:52;6.70;99.90
4215;DHT22;2121;48.062;7.850;2024-02-23T08:40:19;6.80;99.90
4215;DHT22;2121;48.062;7.850;2024-02-23T08:42:44;6.90;99.90
4215;DHT22;2121;48.062;7.850;2024-02-23T08:45:12;6.90;99.90
4215;DHT22;2121;48.062;7.850;2024-02-23T08:47:39;7.00;99.90
4215;DHT22;2121;48.062;7.850;2024-02-23T08:50:06;7.20;99.90
4215;DHT22;2121;48.062;7.850;2024-02-23T08:52:32;7.30;99.90
4215;DHT22;2121;48.062;7.850;2024-02-23T08:54:57;7.40;99.90
4215;DHT22;2121;48.062;7.850;2024-02-23T08:57:23;7.50;99.90
4215;DHT22;2121;48.062;7.850;2024-02-23T08:59:49;7.60;99.90
4215;DHT22;2121;48.062;7.850;2024-02-23T09:02:15;7.70;99.90
4215;DHT22;2121;48.062;7.850;2024-02-23T09:04:41;7.70;99.90
4215;DHT22;2121;48.062;7.850;2024-02-23T09:07:07;7.80;99.90
4215;DHT22;2121;48.062;7.850;2024-02-23T09:09:32;7.90;99.90
4215;DHT22;2121;48.062;7.850;2024-02-23T09:11:58;8.00;99.90
4215;DHT22;2121;48.062;7.850;2024-02-23T09:14:24;8.10;99.90
4215;DHT22;2121;48.062;7.850;2024-02-23T09:16:51;8.20;99.90
4215;DHT22;2121;48.062;7.850;2024-02-23T09:19:19;8.30;99.90
4215;DHT22;2121;48.062;7.850;2024-02-23T09:21:45;8.40;99.90
4215;DHT22;2121;48.062;7.850;2024-02-23T09:24:12;8.50;99.90
4215;DHT22;2121;48.062;7.850;2024-02-23T09:26:38;8.60;99.90
4215;DHT22;2121;48.062;7.850;2024-02-23T09:29:04;8.60;99.90
4215;DHT22;2121;48.062;7.850;2024-02-23T09:31:30;8.50;99.90
4215;DHT22;2121;48.062;7.850;2024-02-23T09:33:57;8.40;99.90
4215;DHT22;2121;48.062;7.850;2024-02-23T09:36:23;8.20;99.90
4215;DHT22;2121;48.062;7.850;2024-02-23T09:38:50;8.60;99.90
4215;DHT22;2121;48.062;7.850;2024-02-23T09:41:23;8.50;99.90
4215;DHT22;2121;48.062;7.850;2024-02-23T09:43:50;8.60;99.90
4215;DHT22;2121;48.062;7.850;2024-02-23T09:46:17;8.70;99.90
4215;DHT22;2121;48.062;7.850;2024-02-23T09:48:43;8.80;99.90
4215;DHT22;2121;48.062;7.850;2024-02-23T09:51:10;8.90;99.90
4215;DHT22;2121;48.062;7.850;2024-02-23T09:53:38;8.80;99.90
4215;DHT22;2121;48.062;7.850;2024-02-23T09:56:05;8.60;99.90
4215;DHT22;2121;48.062;7.850;2024-02-23T09:58:35;8.70;99.90
4215;DHT22;2121;48.062;7.850;2024-02-23T10:01:03;9.00;99.90
4215;DHT22;2121;48.062;7.850;2024-02-23T10:03:30;9.10;99.30
4215;DHT22;2121;48.062;7.850;2024-02-23T10:05:59;9.10;99.80
4215;DHT22;2121;48.062;7.850;2024-02-23T10:08:28;9.20;99.90
4215;DHT22;2121;48.062;7.850;2024-02-23T10:10:55;9.30;99.90
4215;DHT22;2121;48.062;7.850;2024-02-23T10:13:22;9.30;98.70
4215;DHT22;2121;48.062;7.850;2024-02-23T10:15:52;9.20;99.60
4215;DHT22;2121;48.062;7.850;2024-02-23T10:18:18;9.30;99.90
4215;DHT22;2121;48.062;7.850;2024-02-23T10:20:44;9.40;99.30
4215;DHT22;2121;48.062;7.850;2024-02-23T10:23:11;9.40;99.20
4215;DHT22;2121;48.062;7.850;2024-02-23T10:25:37;9.30;99.50
4215;DHT22;2121;48.062;7.850;2024-02-23T10:28:05;9.60;98.90
4215;DHT22;2121;48.062;7.850;2024-02-23T10:30:32;9.70;99.70
4215;DHT22;2121;48.062;7.850;2024-02-23T10:32:59;10.00;99.20
4215;DHT22;2121;48.062;7.850;2024-02-23T10:35:25;9.90;99.30
4215;DHT22;2121;48.062;7.850;2024-02-23T10:37:55;9.90;98.50
4215;DHT22;2121;48.062;7.850;2024-02-23T10:40:21;10.00;98.70
4215;DHT22;2121;48.062;7.850;2024-02-23T10:42:55;9.50;98.50
4215;DHT22;2121;48.062;7.850;2024-02-23T10:45:22;9.10;98.30
4215;DHT22;2121;48.062;7.850;2024-02-23T10:47:48;8.90;98.30
4215;DHT22;2121;48.062;7.850;2024-02-23T10:50:17;8.80;98.90
4215;DHT22;2121;48.062;7.850;2024-02-23T10:52:45;8.90;98.90
4215;DHT22;2121;48.062;7.850;2024-02-23T10:55:14;8.90;98.40
4215;DHT22;2121;48.062;7.850;2024-02-23T10:57:40;8.90;99.00
4215;DHT22;2121;48.062;7.850;2024-02-23T11:00:07;8.80;98.90
4215;DHT22;2121;48.062;7.850;2024-02-23T11:02:41;8.70;98.80
4215;DHT22;2121;48.062;7.850;2024-02-23T11:05:10;8.60;98.80
4215;DHT22;2121;48.062;7.850;2024-02-23T11:07:40;8.80;98.90
4215;DHT22;2121;48.062;7.850;2024-02-23T11:10:06;9.00;98.80
4215;DHT22;2121;48.062;7.850;2024-02-23T11:12:34;9.30;98.70
4215;DHT22;2121;48.062;7.850;2024-02-23T11:15:01;9.80;97.30
4215;DHT22;2121;48.062;7.850;2024-02-23T11:17:33;10.10;97.10
4215;DHT22;2121;48.062;7.850;2024-02-23T11:20:03;10.40;96.10
4215;DHT22;2121;48.062;7.850;2024-02-23T11:22:36;10.50;96.30
4215;DHT22;2121;48.062;7.850;2024-02-23T11:25:04;10.50;95.70
4215;DHT22;2121;48.062;7.850;2024-02-23T11:27:37;10.40;95.60
4215;DHT22;2121;48.062;7.850;2024-02-23T11:30:04;10.40;95.90
4215;DHT22;2121;48.062;7.850;2024-02-23T11:32:41;10.60;96.00
4215;DHT22;2121;48.062;7.850;2024-02-23T11:35:11;10.40;95.60
4215;DHT22;2121;48.062;7.850;2024-02-23T11:37:51;10.40;96.10
4215;DHT22;2121;48.062;7.850;2024-02-23T11:40:25;10.60;96.00
4215;DHT22;2121;48.062;7.850;2024-02-23T11:42:51;10.20;95.60
4215;DHT22;2121;48.062;7.850;2024-02-23T11:45:17;10.00;96.10
4215;DHT22;2121;48.062;7.850;2024-02-23T11:47:43;10.50;96.60
4215;DHT22;2121;48.062;7.850;2024-02-23T11:50:10;10.70;95.80
4215;DHT22;2121;48.062;7.850;2024-02-23T11:52:39;10.50;95.50
4215;DHT22;2121;48.062;7.850;2024-02-23T11:55:05;10.30;95.70
4215;DHT22;2121;48.062;7.850;2024-02-23T11:57:33;10.20;96.10
4215;DHT22;2121;48.062;7.850;2024-02-23T12:00:04;10.20;95.90
4215;DHT22;2121;48.062;7.850;2024-02-23T12:02:36;10.00;95.70
4215;DHT22;2121;48.062;7.850;2024-02-23T12:05:03;9.70;96.40
4215;DHT22;2121;48.062;7.850;2024-02-23T12:07:30;9.60;96.30
4215;DHT22;2121;48.062;7.850;2024-02-23T12:09:58;9.70;96.80
4215;DHT22;2121;48.062;7.850;2024-02-23T12:12:27;9.70;96.70
4215;DHT22;2121;48.062;7.850;2024-02-23T12:14:54;9.80;96.50
4215;DHT22;2121;48.062;7.850;2024-02-23T12:17:20;9.70;96.80
4215;DHT22;2121;48.062;7.850;2024-02-23T12:19:48;9.70;97.10
4215;DHT22;2121;48.062;7.850;2024-02-23T12:22:15;9.70;97.50
4215;DHT22;2121;48.062;7.850;2024-02-23T12:24:41;9.70;97.70
4215;DHT22;2121;48.062;7.850;2024-02-23T12:27:09;9.70;97.30
4215;DHT22;2121;48.062;7.850;2024-02-23T12:29:35;9.70;97.10
4215;DHT22;2121;48.062;7.850;2024-02-23T12:32:06;9.70;97.40
4215;DHT22;2121;48.062;7.850;2024-02-23T12:34:33;9.80;97.40
4215;DHT22;2121;48.062;7.850;2024-02-23T12:36:59;9.70;97.70
4215;DHT22;2121;48.062;7.850;2024-02-23T12:39:27;9.50;97.30
4215;DHT22;2121;48.062;7.850;2024-02-23T12:41:53;9.60;96.90
4215;DHT22;2121;48.062;7.850;2024-02-23T12:44:22;9.70;97.20
4215;DHT22;2121;48.062;7.850;2024-02-23T12:46:48;9.70;96.90
4215;DHT22;2121;48.062;7.850;2024-02-23T12:49:15;9.70;96.80
4215;DHT22;2121;48.062;7.850;2024-02-23T12:51:41;9.90;97.50
4215;DHT22;2121;48.062;7.850;2024-02-23T12:54:07;10.30;96.40
4215;DHT22;2121;48.062;7.850;2024-02-23T12:56:33;10.60;96.20
4215;DHT22;2121;48.062;7.850;2024-02-23T12:58:59;10.20;95.80
4215;DHT22;2121;48.062;7.850;2024-02-23T13:01:25;10.40;96.20
4215;DHT22;2121;48.062;7.850;2024-02-23T13:03:51;10.40;96.40
4215;DHT22;2121;48.062;7.850;2024-02-23T13:06:16;10.40;96.70
4215;DHT22;2121;48.062;7.850;2024-02-23T13:08:42;10.50;96.00
4215;DHT22;2121;48.062;7.850;2024-02-23T13:11:08;10.70;95.80
4215;DHT22;2121;48.062;7.850;2024-02-23T13:13:34;10.90;95.80
4215;DHT22;2121;48.062;7.850;2024-02-23T13:16:00;11.40;95.80
4215;DHT22;2121;48.062;7.850;2024-02-23T13:18:25;11.70;95.40
4215;DHT22;2121;48.062;7.850;2024-02-23T13:20:51;11.50;95.10
4215;DHT22;2121;48.062;7.850;2024-02-23T13:23:17;11.40;94.90
4215;DHT22;2121;48.062;7.850;2024-02-23T13:25:43;11.40;95.30
4215;DHT22;2121;48.062;7.850;2024-02-23T13:28:10;11.60;94.40
4215;DHT22;2121;48.062;7.850;2024-02-23T13:30:36;11.40;94.10
4215;DHT22;2121;48.062;7.850;2024-02-23T13:33:03;10.90;94.50
4215;DHT22;2121;48.062;7.850;2024-02-23T13:35:29;10.90;94.90
4215;DHT22;2121;48.062;7.850;2024-02-23T13:37:55;10.90;95.20
4215;DHT22;2121;48.062;7.850;2024-02-23T13:40:20;10.90;94.60
4215;DHT22;2121;48.062;7.850;2024-02-23T13:42:47;11.00;95.10
4215;DHT22;2121;48.062;7.850;2024-02-23T13:45:16;11.00;94.90
4215;DHT22;2121;48.062;7.850;2024-02-23T13:47:43;11.10;94.70
4215;DHT22;2121;48.062;7.850;2024-02-23T13:50:20;11.00;94.60
4215;DHT22;2121;48.062;7.850;2024-02-23T13:52:45;11.00;94.50
4215;DHT22;2121;48.062;7.850;2024-02-23T13:55:11;10.70;94.80
4215;DHT22;2121;48.062;7.850;2024-02-23T13:57:37;10.70;94.80
4215;DHT22;2121;48.062;7.850;2024-02-23T14:00:03;10.50;95.10
4215;DHT22;2121;48.062;7.850;2024-02-23T14:02:31;10.50;95.30
4215;DHT22;2121;48.062;7.850;2024-02-23T14:05:01;10.60;95.10
4215;DHT22;2121;48.062;7.850;2024-02-23T14:07:28;10.90;94.90
4215;DHT22;2121;48.062;7.850;2024-02-23T14:09:54;10.90;94.50
4215;DHT22;2121;48.062;7.850;2024-02-23T14:12:20;11.20;95.10
4215;DHT22;2121;48.062;7.850;2024-02-23T14:14:46;11.40;94.90
4215;DHT22;2121;48.062;7.850;2024-02-23T14:17:11;11.80;94.40
4215;DHT22;2121;48.062;7.850;2024-02-23T14:19:37;12.30;93.80
4215;DHT22;2121;48.062;7.850;2024-02-23T14:22:03;12.60;93.50
4215;DHT22;2121;48.062;7.850;2024-02-23T14:24:29;12.70;93.30
4215;DHT22;2121;48.062;7.850;2024-02-23T14:26:55;12.60;93.10
4215;DHT22;2121;48.062;7.850;2024-02-23T14:29:20;12.40;93.50
4215;DHT22;2121;48.062;7.850;2024-02-23T14:31:46;12.00;93.50
4215;DHT22;2121;48.062;7.850;2024-02-23T14:34:12;11.90;94.10
4215;DHT22;2121;48.062;7.850;2024-02-23T14:36:38;12.10;93.80
4215;DHT22;2121;48.062;7.850;2024-02-23T14:39:03;12.50;93.60
4215;DHT22;2121;48.062;7.850;2024-02-23T14:41:32;12.80;93.40
4215;DHT22;2121;48.062;7.850;2024-02-23T14:43:58;13.00;93.20
4215;DHT22;2121;48.062;7.850;2024-02-23T14:46:23;12.80;92.00
4215;DHT22;2121;48.062;7.850;2024-02-23T14:48:49;13.00;92.70
4215;DHT22;2121;48.062;7.850;2024-02-23T14:51:15;13.00;93.50
4215;DHT22;2121;48.062;7.850;2024-02-23T14:53:41;13.10;93.80
4215;DHT22;2121;48.062;7.850;2024-02-23T14:56:08;13.00;92.60
4215;DHT22;2121;48.062;7.850;2024-02-23T14:58:33;13.00;93.20
4215;DHT22;2121;48.062;7.850;2024-02-23T15:00:59;13.40;92.30
4215;DHT22;2121;48.062;7.850;2024-02-23T15:03:25;13.50;91.50
4215;DHT22;2121;48.062;7.850;2024-02-23T15:05:51;13.70;92.40
4215;DHT22;2121;48.062;7.850;2024-02-23T15:08:17;13.60;91.50
4215;DHT22;2121;48.062;7.850;2024-02-23T15:10:43;13.40;91.30
4215;DHT22;2121;48.062;7.850;2024-02-23T15:13:08;13.50;91.40
4215;DHT22;2121;48.062;7.850;2024-02-23T15:15:34;13.60;91.50
4215;DHT22;2121;48.062;7.850;2024-02-23T15:18:04;13.80;91.50
4215;DHT22;2121;48.062;7.850;2024-02-23T15:20:31;13.50;91.60
4215;DHT22;2121;48.062;7.850;2024-02-23T15:22:57;13.10;91.20
4215;DHT22;2121;48.062;7.850;2024-02-23T15:25:23;12.90;91.10
4215;DHT22;2121;48.062;7.850;2024-02-23T15:27:49;12.50;90.80
4215;DHT22;2121;48.062;7.850;2024-02-23T15:30:15;12.30;91.10
4215;DHT22;2121;48.062;7.850;2024-02-23T15:32:41;12.40;90.30
4215;DHT22;2121;48.062;7.850;2024-02-23T15:35:07;12.70;89.60
4215;DHT22;2121;48.062;7.850;2024-02-23T15:37:33;13.20;89.50
4215;DHT22;2121;48.062;7.850;2024-02-23T15:39:59;13.40;88.10
4215;DHT22;2121;48.062;7.850;2024-02-23T15:42:25;13.40;87.50
4215;DHT22;2121;48.062;7.850;2024-02-23T15:44:51;13.10;87.50
4215;DHT22;2121;48.062;7.850;2024-02-23T15:47:17;12.70;88.80
4215;DHT22;2121;48.062;7.850;2024-02-23T15:49:42;12.50;86.90
4215;DHT22;2121;48.062;7.850;2024-02-23T15:52:09;12.20;88.30
4215;DHT22;2121;48.062;7.850;2024-02-23T15:54:35;12.00;88.00
4215;DHT22;2121;48.062;7.850;2024-02-23T15:57:00;11.60;88.40
4215;DHT22;2121;48.062;7.850;2024-02-23T15:59:26;11.50;89.30
4215;DHT22;2121;48.062;7.850;2024-02-23T16:01:52;11.40;89.30
4215;DHT22;2121;48.062;7.850;2024-02-23T16:04:18;12.20;90.00
4215;DHT22;2121;48.062;7.850;2024-02-23T16:06:43;13.80;89.00
4215;DHT22;2121;48.062;7.850;2024-02-23T16:09:09;15.90;86.50